Lebanon, Indiana
Current Conditions -  °F | °C
As of 12:15 AM on Saturday 25 Oct 2014 (Local Time) from KTYQ Reporting Station
Clear Clear  
Wind Chill: 52°   Ceiling: Unl
Heat Index: 52°   Visibility: 10mi
Dew Point: 48°   Wind: 3mph
Humidity: 85%   Direction: 220°SW
Pressure: 30.03"   Gusts: NA
Location:  40.05°N, 86.47°W
Report Text: KTYQ 250415Z AUTO 22003KT 10SM CLR 11/09 A3003 RMK AO2 T01120088
Loading
Personal Weather Stations






























Interactive Weather Map
Tropical Storm Tracking
New forecast layout! Learn more

10-Day Weather Forecast

Advertisements
Track Severe Weather on mobile